Terminal Aerodrome Forecast
Issued by NWS

Home | Current Version | Previous Version | Text Only | Print | Product List | Glossary On
Versions: 1 2 3 4 5 6 7 8 9 10 11 12 13 14 15 16 17 18 19 20 21 22 23
000
FTUS41 KPBZ 271400 AAB
TAFAGC
TAF AMD
KAGC 271456Z 2715/2812 33008KT P6SM SCT015 OVC040
      TEMPO 2715/2716 4SM -SHSN BKN015
     FM271600 34006KT P6SM BKN025
     FM281100 33008KT P6SM SCT035=

USA.gov is the U.S. government's official web portal to all federal, state and local government web resources and services.